Time;durP1;ratioP1;P1;durP2;ratioP2;P2;SDS_P1;SDS_P2;PMS_P1;PMS_P2;Temp;Humidity;BMP_temperature;BMP_pressure;BME280_temperature;BME280_humidity;BME280_pressure;Samples;Min_cycle;Max_cycle;Signal;HPM_P1;HPM_P2
2022/05/14 00:01:05;;;;;;;16.10;4.78;;;11.20;99.90;;;;;;5026437;28;20197;-58
2022/05/14 00:03:32;;;;;;;9.40;4.47;;;11.20;99.90;;;;;;5031396;28;20285;-59
2022/05/14 00:06:10;;;;;;;9.90;4.15;;;11.20;99.90;;;;;;5029131;28;20041;-58
2022/05/14 00:08:36;;;;;;;11.95;4.10;;;11.20;99.90;;;;;;5025422;28;20045;-58
2022/05/14 00:13:47;;;;;;;15.18;4.20;;;11.20;99.90;;;;;;5024581;28;20087;-59
2022/05/14 00:16:15;;;;;;;11.45;4.18;;;11.10;99.90;;;;;;5030321;28;20577;-58
2022/05/14 00:18:41;;;;;;;11.68;4.72;;;11.20;99.90;;;;;;5018982;28;20108;-61
2022/05/14 00:21:08;;;;;;;13.88;4.53;;;11.10;99.90;;;;;;5013372;28;20029;-59
2022/05/14 00:23:33;;;;;;;13.18;4.15;;;11.10;99.90;;;;;;5030560;28;20033;-59
2022/05/14 00:25:59;;;;;;;7.65;3.65;;;11.00;99.90;;;;;;5030266;28;20044;-60
2022/05/14 00:28:24;;;;;;;17.17;5.03;;;11.00;99.90;;;;;;5027723;28;20037;-60
2022/05/14 00:30:50;;;;;;;15.88;4.80;;;10.90;99.90;;;;;;5030948;28;20021;-61
2022/05/14 00:33:16;;;;;;;14.57;4.55;;;10.90;99.90;;;;;;5028563;28;20137;-60
2022/05/14 00:35:43;;;;;;;13.98;5.03;;;10.90;99.90;;;;;;5029811;28;20017;-61
2022/05/14 00:38:09;;;;;;;13.00;4.13;;;10.90;99.90;;;;;;5017624;28;20034;-59
2022/05/14 00:40:48;;;;;;;10.27;4.40;;;10.90;99.90;;;;;;5028296;28;20021;-60
2022/05/14 00:43:15;;;;;;;15.80;4.20;;;10.90;99.90;;;;;;5026898;28;20475;-60
2022/05/14 00:45:50;;;;;;;15.80;4.15;;;10.90;99.90;;;;;;5031504;28;20021;-59
2022/05/14 00:48:16;;;;;;;11.68;4.65;;;10.90;99.90;;;;;;5028360;28;20080;-58
2022/05/14 00:50:48;;;;;;;14.27;4.75;;;10.90;99.90;;;;;;5029783;28;20026;-60
2022/05/14 00:53:18;;;;;;;10.45;4.57;;;10.80;99.90;;;;;;5026239;28;20026;-57
2022/05/14 00:55:45;;;;;;;13.10;4.97;;;10.80;99.90;;;;;;5029946;28;20025;-60
2022/05/14 00:58:27;;;;;;;9.75;4.50;;;10.80;99.90;;;;;;5028025;28;20028;-59
2022/05/14 01:00:52;;;;;;;8.40;4.45;;;10.70;99.90;;;;;;5031728;28;20115;-55
2022/05/14 01:03:18;;;;;;;11.05;4.60;;;10.70;99.90;;;;;;5029460;28;20087;-57
2022/05/14 01:05:44;;;;;;;10.38;4.60;;;10.60;99.90;;;;;;5028130;28;20490;-54
2022/05/14 01:08:10;;;;;;;13.68;4.53;;;10.50;99.90;;;;;;5010058;28;20022;-56
2022/05/14 01:10:42;;;;;;;10.05;4.10;;;10.50;99.90;;;;;;5007431;28;20049;-57
2022/05/14 01:13:08;;;;;;;7.32;4.28;;;10.40;99.90;;;;;;5029672;28;20038;-61
2022/05/14 01:15:55;;;;;;;16.25;4.72;;;10.30;99.90;;;;;;5026224;28;20026;-60
2022/05/14 01:18:24;;;;;;;11.13;4.95;;;10.30;99.90;;;;;;5027728;28;20044;-59
2022/05/14 01:20:56;;;;;;;10.45;4.78;;;10.20;99.90;;;;;;5022833;28;20018;-61
2022/05/14 01:26:29;;;;;;;16.50;4.28;;;10.10;99.90;;;;;;5026918;28;20095;-59
2022/05/14 01:29:16;;;;;;;13.07;4.95;;;10.10;99.90;;;;;;5025934;28;20029;-59
2022/05/14 01:31:43;;;;;;;13.40;5.20;;;10.00;99.90;;;;;;5024870;28;20113;-61
2022/05/14 01:34:11;;;;;;;13.43;4.90;;;10.00;99.90;;;;;;5026406;28;20037;-59
2022/05/14 01:36:39;;;;;;;10.88;5.03;;;9.90;99.90;;;;;;5027908;28;20025;-59
2022/05/14 01:39:06;;;;;;;14.15;5.38;;;9.90;99.90;;;;;;5028524;28;20498;-60
2022/05/14 01:41:31;;;;;;;12.18;6.30;;;9.90;99.90;;;;;;5031238;28;20494;-59
2022/05/14 01:43:57;;;;;;;9.27;4.72;;;9.90;99.90;;;;;;5028743;28;20101;-59
2022/05/14 01:46:23;;;;;;;11.18;5.85;;;9.80;99.90;;;;;;5028714;28;20039;-60
2022/05/14 01:48:49;;;;;;;19.52;5.72;;;9.80;99.90;;;;;;5013638;28;20503;-60
2022/05/14 01:51:15;;;;;;;11.50;6.32;;;9.80;99.90;;;;;;5021440;28;20083;-60
2022/05/14 01:53:41;;;;;;;11.32;5.15;;;9.70;99.90;;;;;;5021825;28;20036;-60
2022/05/14 01:56:07;;;;;;;14.90;6.53;;;9.70;99.90;;;;;;5027218;28;20021;-59
2022/05/14 01:58:38;;;;;;;12.48;5.78;;;9.60;99.90;;;;;;5028602;28;20022;-58
2022/05/14 02:01:20;;;;;;;13.23;6.60;;;9.60;99.90;;;;;;5028264;28;20778;-61
2022/05/14 02:03:49;;;;;;;12.15;6.68;;;9.50;99.90;;;;;;5017095;28;20025;-59
2022/05/14 02:06:15;;;;;;;13.80;5.93;;;9.50;99.90;;;;;;5018332;28;20045;-59
2022/05/14 02:08:41;;;;;;;11.63;6.35;;;9.50;99.90;;;;;;5019873;28;20022;-59
2022/05/14 02:11:08;;;;;;;12.82;6.05;;;9.50;99.90;;;;;;5007066;28;20111;-60
2022/05/14 02:13:34;;;;;;;12.30;6.55;;;9.50;99.90;;;;;;5031623;28;20103;-59
2022/05/14 02:16:00;;;;;;;8.20;5.32;;;9.40;99.90;;;;;;5030642;28;20071;-57
2022/05/14 02:18:26;;;;;;;12.25;6.65;;;9.40;99.90;;;;;;5022571;28;20436;-54
2022/05/14 02:20:52;;;;;;;18.85;5.95;;;9.40;99.90;;;;;;5031441;28;20096;-60
2022/05/14 02:23:18;;;;;;;12.25;6.28;;;9.40;99.90;;;;;;5027360;28;20443;-57
2022/05/14 02:25:44;;;;;;;16.20;6.13;;;9.40;99.90;;;;;;5027828;28;20029;-56
2022/05/14 02:28:09;;;;;;;16.63;6.10;;;9.40;99.90;;;;;;5032820;28;20477;-60
2022/05/14 02:30:35;;;;;;;22.92;6.47;;;9.40;99.90;;;;;;5036816;28;20043;-60
2022/05/14 02:33:01;;;;;;;17.88;5.78;;;9.40;99.90;;;;;;5029768;28;20037;-61
2022/05/14 02:35:26;;;;;;;16.90;5.60;;;9.30;99.90;;;;;;5028315;28;20067;-56
2022/05/14 02:37:52;;;;;;;8.73;5.22;;;9.30;99.90;;;;;;5035668;28;20029;-59
2022/05/14 02:40:17;;;;;;;13.05;6.22;;;9.30;99.90;;;;;;5022299;28;20024;-61
2022/05/14 02:42:43;;;;;;;12.27;5.35;;;9.30;99.90;;;;;;5031399;28;20301;-59
2022/05/14 02:45:09;;;;;;;12.27;5.72;;;9.30;99.90;;;;;;5025430;28;22168;-60
2022/05/14 02:47:35;;;;;;;11.88;5.70;;;9.30;99.90;;;;;;5023338;28;20037;-60
2022/05/14 02:50:01;;;;;;;12.32;5.70;;;9.30;99.90;;;;;;5018066;28;20100;-53
2022/05/14 02:52:26;;;;;;;10.40;5.63;;;9.30;99.90;;;;;;5030701;28;20109;-60
2022/05/14 02:54:52;;;;;;;14.23;5.88;;;9.20;99.90;;;;;;5027419;28;20033;-56
2022/05/14 02:57:18;;;;;;;12.93;5.82;;;9.30;99.90;;;;;;5021098;28;20073;-55
2022/05/14 02:59:44;;;;;;;13.80;5.85;;;9.20;99.90;;;;;;5021050;28;20025;-56
2022/05/14 03:02:09;;;;;;;19.98;5.13;;;9.20;99.90;;;;;;5024057;28;20079;-58
2022/05/14 03:04:38;;;;;;;14.25;4.90;;;9.20;99.90;;;;;;5029916;28;20025;-58
2022/05/14 03:07:07;;;;;;;14.98;5.30;;;9.10;99.90;;;;;;5029422;28;20025;-58
2022/05/14 03:09:34;;;;;;;10.80;5.00;;;9.10;99.90;;;;;;5036920;28;20026;-58
2022/05/14 03:12:00;;;;;;;10.25;5.57;;;9.10;99.90;;;;;;5017547;28;20045;-52
2022/05/14 03:14:25;;;;;;;6.60;4.63;;;9.10;99.90;;;;;;5028376;28;20721;-57
2022/05/14 03:16:52;;;;;;;9.65;5.55;;;9.10;99.90;;;;;;5030290;28;20104;-58
2022/05/14 03:19:18;;;;;;;11.90;5.78;;;9.10;99.90;;;;;;5024759;28;20022;-58
2022/05/14 03:21:43;;;;;;;13.30;5.65;;;9.00;99.90;;;;;;5024399;28;20398;-58
2022/05/14 03:24:10;;;;;;;12.10;5.80;;;9.00;99.90;;;;;;5024472;28;20080;-58
2022/05/14 03:26:37;;;;;;;13.43;5.43;;;8.90;99.90;;;;;;5031427;28;20112;-60
2022/05/14 03:29:03;;;;;;;13.90;6.57;;;8.90;99.90;;;;;;5035359;28;20030;-59
2022/05/14 03:31:31;;;;;;;10.23;5.40;;;8.90;99.90;;;;;;5025899;28;20242;-60
2022/05/14 03:33:57;;;;;;;12.50;6.10;;;8.80;99.90;;;;;;5030479;28;20021;-59
2022/05/14 03:36:23;;;;;;;13.80;6.40;;;8.90;99.90;;;;;;5033727;28;20040;-59
2022/05/14 03:38:49;;;;;;;11.77;5.57;;;8.90;99.90;;;;;;5026695;28;20466;-60
2022/05/14 03:41:17;;;;;;;12.02;6.78;;;8.80;99.90;;;;;;5031276;28;20033;-60
2022/05/14 03:43:44;;;;;;;13.68;5.68;;;8.80;99.90;;;;;;5031763;28;20805;-60
2022/05/14 03:46:10;;;;;;;11.38;5.95;;;8.80;99.90;;;;;;5029704;28;20095;-60
2022/05/14 03:48:36;;;;;;;10.15;5.53;;;8.70;99.90;;;;;;5015535;28;20407;-61
2022/05/14 03:51:03;;;;;;;9.60;5.53;;;8.70;99.90;;;;;;5035506;28;20029;-61
2022/05/14 03:53:29;;;;;;;13.18;6.25;;;8.70;99.90;;;;;;5035128;28;20041;-60
2022/05/14 03:55:55;;;;;;;10.82;5.72;;;8.70;99.90;;;;;;5027365;28;20033;-62
2022/05/14 03:58:20;;;;;;;13.05;5.72;;;8.70;99.90;;;;;;5019866;28;20022;-53
2022/05/14 04:00:46;;;;;;;7.30;5.72;;;8.70;99.90;;;;;;5024355;28;20688;-59
2022/05/14 04:03:13;;;;;;;17.05;6.22;;;8.80;99.90;;;;;;5026418;28;20124;-60
2022/05/14 04:05:38;;;;;;;10.60;5.22;;;8.80;99.90;;;;;;5024315;28;20042;-56
2022/05/14 04:08:04;;;;;;;13.88;5.80;;;8.80;99.90;;;;;;5020764;28;20103;-58
2022/05/14 04:10:30;;;;;;;15.15;5.95;;;8.80;99.90;;;;;;5027116;28;20071;-56
2022/05/14 04:12:56;;;;;;;11.13;5.65;;;8.80;99.90;;;;;;5017473;28;20144;-61
2022/05/14 04:15:25;;;;;;;11.73;6.13;;;8.90;99.90;;;;;;5026315;28;20437;-59
2022/05/14 04:17:52;;;;;;;9.88;5.43;;;8.90;99.90;;;;;;5024476;28;20095;-58
2022/05/14 04:20:18;;;;;;;11.75;5.22;;;9.00;99.90;;;;;;5028533;28;20112;-60
2022/05/14 04:22:43;;;;;;;9.98;5.43;;;9.10;99.90;;;;;;5025171;28;20104;-60
2022/05/14 04:25:11;;;;;;;7.70;4.75;;;9.10;99.90;;;;;;5025032;28;20033;-58
2022/05/14 04:27:37;;;;;;;13.52;6.38;;;9.20;99.90;;;;;;5028700;28;20604;-60
2022/05/14 04:30:04;;;;;;;9.68;4.93;;;9.30;99.90;;;;;;5018165;28;20041;-53
2022/05/14 04:32:30;;;;;;;16.30;4.70;;;9.30;99.90;;;;;;5023941;28;20044;-57
2022/05/14 04:34:56;;;;;;;11.77;5.35;;;9.40;99.90;;;;;;5023607;28;20034;-59
2022/05/14 04:37:22;;;;;;;10.05;4.68;;;9.50;99.90;;;;;;5034220;28;20021;-58
2022/05/14 04:39:49;;;;;;;10.68;4.97;;;9.60;99.90;;;;;;5029008;28;20037;-60
2022/05/14 04:42:15;;;;;;;10.98;4.72;;;9.70;99.90;;;;;;5026238;28;20026;-59
2022/05/14 04:44:42;;;;;;;11.20;4.63;;;9.80;99.90;;;;;;5031903;28;20499;-60
2022/05/14 04:47:08;;;;;;;10.05;4.18;;;10.00;99.90;;;;;;5040086;28;20041;-59
2022/05/14 04:49:41;;;;;;;8.82;4.30;;;10.20;99.90;;;;;;5025379;28;20033;-59
2022/05/14 04:52:08;;;;;;;10.48;4.35;;;10.40;99.90;;;;;;5032783;28;20036;-57
2022/05/14 04:54:33;;;;;;;6.68;4.03;;;10.60;99.90;;;;;;5015848;28;20167;-59
2022/05/14 04:56:59;;;;;;;9.57;5.10;;;10.70;99.90;;;;;;5024653;28;20101;-55
2022/05/14 04:59:24;;;;;;;13.93;4.40;;;10.70;99.90;;;;;;5019956;28;20029;-58
2022/05/14 05:04:38;;;;;;;5.25;3.72;;;11.00;99.90;;;;;;5024790;28;20450;-56
2022/05/14 05:07:03;;;;;;;6.65;3.10;;;11.60;99.90;;;;;;5018019;28;20104;-60
2022/05/14 05:09:29;;;;;;;9.48;3.55;;;12.30;99.90;;;;;;5027498;28;20035;-59
2022/05/14 05:11:55;;;;;;;4.28;2.83;;;13.20;99.90;;;;;;5011530;28;20806;-58
2022/05/14 05:14:20;;;;;;;8.00;2.92;;;14.80;99.90;;;;;;5023265;28;20451;-61
2022/05/14 05:16:46;;;;;;;4.82;3.13;;;16.00;99.10;;;;;;5029791;28;20040;-61
2022/05/14 05:19:11;;;;;;;5.03;2.95;;;16.70;97.10;;;;;;5031460;28;20025;-58
2022/05/14 05:21:37;;;;;;;7.32;3.17;;;17.30;96.10;;;;;;5026766;28;20095;-62
2022/05/14 05:24:05;;;;;;;7.75;2.97;;;18.10;93.40;;;;;;5027137;28;20033;-55
2022/05/14 05:26:34;;;;;;;4.75;2.80;;;18.70;91.40;;;;;;5028538;28;20468;-61
2022/05/14 05:29:00;;;;;;;6.18;2.42;;;19.60;89.60;;;;;;5027665;28;20030;-59
2022/05/14 05:31:26;;;;;;;7.50;2.72;;;19.60;86.80;;;;;;5026211;28;20029;-61
2022/05/14 05:33:51;;;;;;;7.55;3.30;;;19.90;86.50;;;;;;5027331;28;20053;-61
2022/05/14 05:36:17;;;;;;;7.32;2.75;;;20.20;84.40;;;;;;5029947;28;20034;-62
2022/05/14 05:38:42;;;;;;;8.27;2.80;;;20.30;82.40;;;;;;5026624;28;20033;-59
2022/05/14 05:41:08;;;;;;;5.32;2.80;;;20.60;81.70;;;;;;5038897;28;20025;-60
2022/05/14 05:43:33;;;;;;;9.50;3.08;;;20.90;80.00;;;;;;5026432;28;20022;-60
2022/05/14 05:45:59;;;;;;;5.35;2.83;;;21.70;78.80;;;;;;5028426;28;20033;-61
2022/05/14 05:48:25;;;;;;;5.65;2.53;;;23.30;74.30;;;;;;5027325;28;20036;-61
2022/05/14 05:50:51;;;;;;;5.90;2.55;;;24.60;70.50;;;;;;5027830;28;20028;-60
2022/05/14 05:53:17;;;;;;;5.43;2.17;;;24.60;67.90;;;;;;5026143;28;20026;-61
2022/05/14 05:58:28;;;;;;;5.78;2.75;;;24.50;67.80;;;;;;5022783;28;20457;-60
2022/05/14 06:00:53;;;;;;;9.02;2.83;;;24.90;66.20;;;;;;5027989;28;20025;-62
2022/05/14 06:03:19;;;;;;;5.25;2.42;;;25.40;66.30;;;;;;5027963;28;20083;-61
2022/05/14 06:05:44;;;;;;;7.75;2.63;;;26.10;64.50;;;;;;5029743;28;20038;-61
2022/05/14 06:08:13;;;;;;;7.38;3.42;;;26.20;62.60;;;;;;5023856;28;20034;-61
2022/05/14 06:10:39;;;;;;;8.73;2.75;;;25.40;63.20;;;;;;5025809;28;20233;-61
2022/05/14 06:13:05;;;;;;;7.18;2.58;;;23.20;65.70;;;;;;5000332;28;20512;-60
2022/05/14 06:15:31;;;;;;;7.53;3.08;;;23.00;64.10;;;;;;5022085;28;20080;-61
2022/05/14 06:18:04;;;;;;;7.20;3.45;;;22.90;67.40;;;;;;5036747;28;20470;-61
2022/05/14 06:20:30;;;;;;;4.35;2.00;;;22.90;65.60;;;;;;5027645;28;20029;-61
2022/05/14 06:22:56;;;;;;;6.72;2.90;;;23.10;66.70;;;;;;5027319;28;20033;-61
2022/05/14 06:25:22;;;;;;;5.03;2.00;;;23.30;64.10;;;;;;5020014;28;20021;-61
2022/05/14 06:27:47;;;;;;;11.05;2.63;;;23.60;63.30;;;;;;5029163;28;20116;-60
2022/05/14 06:30:13;;;;;;;8.32;2.40;;;24.30;62.50;;;;;;5021821;28;20029;-59
2022/05/14 06:32:39;;;;;;;7.88;2.38;;;25.20;61.10;;;;;;5028299;28;20112;-61
2022/05/14 06:35:07;;;;;;;8.07;2.92;;;24.80;59.90;;;;;;5024872;28;20033;-62
2022/05/14 06:37:32;;;;;;;10.32;2.28;;;24.50;59.90;;;;;;5034612;28;20041;-61
2022/05/14 06:39:58;;;;;;;6.53;2.20;;;24.50;59.90;;;;;;5031146;28;20172;-61
2022/05/14 06:42:23;;;;;;;5.90;2.67;;;25.70;58.70;;;;;;5030357;28;20017;-60
2022/05/14 06:44:49;;;;;;;12.82;3.53;;;25.70;57.50;;;;;;5026077;28;20108;-60
2022/05/14 06:47:14;;;;;;;8.48;2.53;;;25.90;57.70;;;;;;5018549;28;20506;-58
2022/05/14 06:49:40;;;;;;;8.38;2.42;;;25.60;56.40;;;;;;5026499;28;20462;-58
2022/05/14 06:52:10;;;;;;;5.00;2.30;;;25.70;56.70;;;;;;5030940;28;20033;-59
2022/05/14 06:54:37;;;;;;;6.43;2.20;;;26.00;56.30;;;;;;5021628;28;20087;-61
2022/05/14 06:57:03;;;;;;;7.22;2.53;;;26.50;55.30;;;;;;5028851;28;20475;-59
2022/05/14 06:59:30;;;;;;;5.97;2.83;;;26.60;55.40;;;;;;5026333;28;20523;-59
2022/05/14 07:01:56;;;;;;;9.93;2.67;;;27.20;55.70;;;;;;5029062;28;20506;-60
2022/05/14 07:07:07;;;;;;;15.90;3.72;;;27.80;53.70;;;;;;5032150;28;20040;-57
2022/05/14 07:09:33;;;;;;;4.30;2.22;;;26.60;54.10;;;;;;5026347;28;20018;-58
2022/05/14 07:12:03;;;;;;;5.18;1.90;;;26.00;54.30;;;;;;4999195;28;20145;-57
2022/05/14 07:14:29;;;;;;;7.53;2.83;;;26.80;55.30;;;;;;5026173;28;20092;-56
2022/05/14 07:16:55;;;;;;;7.53;2.55;;;27.00;54.40;;;;;;5020149;28;20033;-61
2022/05/14 07:19:21;;;;;;;7.53;2.20;;;26.90;55.00;;;;;;5014093;28;20490;-61
2022/05/14 07:21:49;;;;;;;9.95;2.42;;;26.70;56.10;;;;;;5027890;28;20070;-61
2022/05/14 07:24:18;;;;;;;10.70;2.78;;;27.70;53.80;;;;;;5027690;28;20029;-61
2022/05/14 07:26:44;;;;;;;7.38;2.72;;;28.40;53.40;;;;;;5021236;28;20556;-61
2022/05/14 07:29:13;;;;;;;7.22;2.42;;;27.70;53.20;;;;;;5023414;28;20037;-61
2022/05/14 07:31:39;;;;;;;8.35;2.58;;;27.30;53.10;;;;;;5026230;28;20022;-61
2022/05/14 07:34:06;;;;;;;11.25;2.30;;;26.70;53.10;;;;;;5027536;28;20055;-57
2022/05/14 07:36:56;;;;;;;7.72;2.42;;;26.30;53.50;;;;;;5013240;28;20034;-61
2022/05/14 07:39:26;;;;;;;10.65;2.63;;;26.70;54.10;;;;;;5003790;28;20733;-60
2022/05/14 07:41:55;;;;;;;6.70;2.45;;;27.10;53.40;;;;;;5023067;28;20018;-61
2022/05/14 07:44:25;;;;;;;7.80;2.70;;;27.20;53.60;;;;;;5024209;28;20017;-61
2022/05/14 07:46:52;;;;;;;6.32;2.45;;;26.70;53.10;;;;;;5018864;28;20027;-60
2022/05/14 07:49:20;;;;;;;6.43;2.50;;;26.50;53.70;;;;;;5019255;28;20024;-60
2022/05/14 07:51:46;;;;;;;8.13;2.53;;;26.60;53.60;;;;;;5019653;28;20092;-62
2022/05/14 07:54:12;;;;;;;8.30;2.35;;;26.30;54.10;;;;;;5026342;28;20037;-61
2022/05/14 07:56:38;;;;;;;8.98;2.20;;;26.30;53.60;;;;;;5030628;28;20401;-59
2022/05/14 07:59:05;;;;;;;7.65;3.22;;;27.60;55.20;;;;;;5026464;28;20026;-61
2022/05/14 08:01:31;;;;;;;9.65;2.35;;;27.70;51.30;;;;;;5017962;28;20129;-59
2022/05/14 08:03:56;;;;;;;6.00;2.47;;;27.70;52.70;;;;;;5021330;28;20108;-59
2022/05/14 08:06:22;;;;;;;9.38;2.80;;;27.30;53.10;;;;;;5025317;28;20041;-60
2022/05/14 08:08:48;;;;;;;7.07;2.30;;;29.00;51.60;;;;;;5020273;28;20044;-59
2022/05/14 08:11:14;;;;;;;11.88;2.55;;;29.00;52.30;;;;;;5028965;28;20033;-60
2022/05/14 08:13:41;;;;;;;7.15;2.28;;;28.80;50.20;;;;;;5017588;28;20053;-59
2022/05/14 08:16:06;;;;;;;8.95;3.13;;;28.30;51.60;;;;;;5019720;28;20025;-57
2022/05/14 08:18:32;;;;;;;8.25;2.67;;;27.20;52.30;;;;;;5029813;28;20411;-60
2022/05/14 08:24:29;;;;;;;9.73;2.75;;;27.20;52.70;;;;;;5030535;28;20018;-60
2022/05/14 08:26:27;;;;;;;10.80;2.53;;;27.40;52.90;;;;;;5016423;28;20114;-60
2022/05/14 08:28:53;;;;;;;10.18;2.70;;;27.50;52.10;;;;;;5031308;28;20021;-60
2022/05/14 08:31:18;;;;;;;6.35;2.63;;;27.20;52.50;;;;;;5024850;28;20051;-60
2022/05/14 08:33:44;;;;;;;6.78;2.92;;;27.60;52.10;;;;;;5023220;28;20029;-54
2022/05/14 08:36:09;;;;;;;5.93;2.63;;;27.60;52.50;;;;;;5029452;28;20025;-58
2022/05/14 08:38:36;;;;;;;9.82;2.60;;;27.80;51.60;;;;;;5020053;28;20033;-61
2022/05/14 08:41:01;;;;;;;8.90;2.47;;;27.40;50.90;;;;;;5013758;28;20022;-61
2022/05/14 08:43:41;;;;;;;17.00;3.05;;;27.80;53.40;;;;;;5038483;28;20022;-61
2022/05/14 08:46:15;;;;;;;10.35;2.75;;;27.40;53.20;;;;;;5027158;28;20490;-55
2022/05/14 08:48:41;;;;;;;8.82;3.17;;;27.60;52.10;;;;;;5026841;28;20021;-61
2022/05/14 08:51:20;;;;;;;9.07;2.47;;;26.90;52.50;;;;;;5032168;28;20029;-60
2022/05/14 08:53:48;;;;;;;10.55;3.40;;;27.00;52.60;;;;;;5033774;28;20013;-60
2022/05/14 08:56:20;;;;;;;11.23;2.47;;;27.70;52.10;;;;;;5023164;28;20033;-60
2022/05/14 08:59:26;;;;;;;6.35;2.67;;;28.70;52.90;;;;;;5026997;28;20026;-61
2022/05/14 09:01:58;;;;;;;11.10;3.50;;;29.00;50.30;;;;;;5023343;28;20119;-61
2022/05/14 09:04:24;;;;;;;12.43;3.10;;;27.90;50.80;;;;;;5024408;28;20022;-60
2022/05/14 09:06:50;;;;;;;12.00;4.07;;;27.30;50.90;;;;;;5027083;28;20021;-61
2022/05/14 09:09:16;;;;;;;7.22;2.47;;;26.80;50.90;;;;;;5033394;28;20552;-61
2022/05/14 09:11:58;;;;;;;9.02;3.15;;;27.20;52.80;;;;;;5020331;28;20029;-60
2022/05/14 09:14:31;;;;;;;10.15;2.80;;;27.10;52.50;;;;;;5010432;28;20033;-59
2022/05/14 09:17:02;;;;;;;7.93;2.63;;;27.10;53.20;;;;;;5026438;28;20064;-60
2022/05/14 09:19:34;;;;;;;7.97;2.90;;;27.80;53.10;;;;;;5031211;28;20044;-61
2022/05/14 09:22:07;;;;;;;10.73;3.03;;;28.80;50.70;;;;;;5032501;28;20029;-58
2022/05/14 09:24:43;;;;;;;6.97;2.78;;;27.80;51.00;;;;;;5023410;28;20025;-60
2022/05/14 09:27:20;;;;;;;10.02;2.88;;;27.90;52.00;;;;;;5019262;28;20415;-59
2022/05/14 09:29:49;;;;;;;8.80;3.00;;;27.80;51.60;;;;;;5022430;28;20041;-54
2022/05/14 09:32:20;;;;;;;10.38;3.30;;;27.50;52.00;;;;;;5004751;28;20129;-59
2022/05/14 09:34:46;;;;;;;13.57;2.85;;;28.10;51.20;;;;;;5030951;28;20039;-59
2022/05/14 09:37:18;;;;;;;8.43;2.60;;;28.10;50.60;;;;;;5019172;28;20084;-60
2022/05/14 09:40:04;;;;;;;15.20;3.50;;;27.60;51.80;;;;;;5017086;28;20391;-58
2022/05/14 09:42:37;;;;;;;12.55;3.08;;;27.40;53.40;;;;;;5015982;28;20073;-60
2022/05/14 09:45:15;;;;;;;9.38;2.70;;;28.00;52.50;;;;;;5011524;28;20526;-61
2022/05/14 09:47:40;;;;;;;11.18;3.47;;;28.80;51.50;;;;;;5025355;28;20033;-54
2022/05/14 09:50:16;;;;;;;8.80;2.97;;;29.00;50.80;;;;;;5021086;28;20044;-56
2022/05/14 09:52:41;;;;;;;7.53;3.25;;;28.70;49.90;;;;;;5023795;28;20528;-58
2022/05/14 09:55:08;;;;;;;10.05;3.15;;;28.30;51.80;;;;;;5015811;28;20038;-61
2022/05/14 09:57:59;;;;;;;14.23;3.78;;;27.60;51.80;;;;;;5021191;28;20100;-58
2022/05/14 10:00:47;;;;;;;8.13;2.72;;;27.50;52.30;;;;;;5013010;28;20029;-60
2022/05/14 10:03:23;;;;;;;11.23;3.00;;;26.70;52.90;;;;;;5014733;28;20392;-60
2022/05/14 10:05:58;;;;;;;12.85;3.33;;;26.40;54.10;;;;;;5002928;28;20052;-56
2022/05/14 10:08:41;;;;;;;9.75;3.00;;;26.20;54.50;;;;;;5021975;28;20080;-59
2022/05/14 10:11:13;;;;;;;;;;;25.50;54.60;;;;;;5019032;28;20056;-61
2022/05/14 10:13:52;;;;;;;14.05;3.20;;;25.70;54.80;;;;;;5006888;28;19923;-58
2022/05/14 10:16:31;;;;;;;17.90;3.67;;;25.20;55.20;;;;;;5024689;28;20037;-54
2022/05/14 10:19:03;;;;;;;9.35;2.97;;;25.10;59.20;;;;;;5016756;28;20033;-58
2022/05/14 10:21:47;;;;;;;9.77;3.10;;;25.20;56.50;;;;;;5026115;28;20109;-60
2022/05/14 10:27:53;;;;;;;11.23;3.03;;;24.20;59.20;;;;;;5026879;28;20044;-56
2022/05/14 10:30:27;;;;;;;10.10;3.05;;;24.40;57.40;;;;;;5007646;28;20028;-60
2022/05/14 10:33:02;;;;;;;11.07;3.85;;;24.30;58.70;;;;;;5019265;28;20097;-58
2022/05/14 10:35:47;;;;;;;8.90;3.22;;;24.00;57.50;;;;;;5020381;28;20034;-58
2022/05/14 10:38:28;;;;;;;10.57;3.22;;;24.10;59.80;;;;;;5018544;28;20120;-60
2022/05/14 10:40:59;;;;;;;10.50;3.15;;;24.20;59.20;;;;;;5021364;28;20021;-54
2022/05/14 10:43:52;;;;;;;11.77;2.92;;;24.30;57.80;;;;;;5020041;28;20108;-58
2022/05/14 10:46:20;;;;;;;11.40;3.00;;;23.80;59.40;;;;;;5026427;28;20075;-59
2022/05/14 10:48:57;;;;;;;8.98;3.00;;;23.90;59.50;;;;;;5026366;28;20029;-60
2022/05/14 10:51:27;;;;;;;12.45;3.50;;;24.10;57.70;;;;;;5027328;28;20036;-56
2022/05/14 10:53:53;;;;;;;7.47;3.63;;;24.10;58.30;;;;;;5021061;28;20026;-59
2022/05/14 10:56:27;;;;;;;10.43;3.60;;;23.70;56.90;;;;;;5011008;28;20037;-61
2022/05/14 10:59:05;;;;;;;13.40;3.83;;;23.70;58.10;;;;;;5028346;28;20228;-59
2022/05/14 11:01:32;;;;;;;11.23;2.70;;;23.90;58.00;;;;;;5011629;28;20044;-61
2022/05/14 11:04:15;;;;;;;14.05;3.00;;;23.80;59.10;;;;;;5018756;28;20026;-59
2022/05/14 11:06:55;;;;;;;11.27;3.50;;;24.10;57.90;;;;;;5024737;28;20082;-58
2022/05/14 11:09:34;;;;;;;8.93;3.08;;;23.80;57.60;;;;;;5023362;28;20032;-60
2022/05/14 11:12:04;;;;;;;12.23;3.33;;;23.30;59.50;;;;;;5027779;28;20055;-60
2022/05/14 11:14:45;;;;;;;10.43;3.03;;;23.10;58.60;;;;;;5009010;28;20041;-59
2022/05/14 11:17:31;;;;;;;10.40;3.03;;;23.20;59.50;;;;;;5020584;28;20112;-58
2022/05/14 11:20:07;;;;;;;10.35;3.10;;;23.10;61.10;;;;;;5023547;28;20415;-60
2022/05/14 11:22:50;;;;;;;6.10;2.60;;;22.80;59.30;;;;;;5025141;28;20037;-58
2022/05/14 11:25:16;;;;;;;8.57;3.28;;;23.00;59.20;;;;;;5023779;28;20049;-57
2022/05/14 11:27:53;;;;;;;14.73;3.22;;;23.40;60.80;;;;;;5027774;28;20521;-59
2022/05/14 11:30:30;;;;;;;10.40;2.65;;;23.50;61.00;;;;;;5029134;28;20171;-61
2022/05/14 11:32:57;;;;;;;10.73;3.13;;;23.50;59.30;;;;;;5027610;28;20105;-59
2022/05/14 11:35:23;;;;;;;13.57;2.97;;;23.40;61.30;;;;;;5027016;28;20112;-58
2022/05/14 11:37:51;;;;;;;7.55;2.85;;;23.00;60.00;;;;;;5030735;28;20647;-59
2022/05/14 11:40:19;;;;;;;10.13;3.00;;;23.20;62.10;;;;;;5026374;28;20029;-59
2022/05/14 11:42:47;;;;;;;12.80;3.15;;;23.20;61.10;;;;;;5026224;28;20502;-59
2022/05/14 11:45:26;;;;;;;11.80;2.67;;;23.40;59.50;;;;;;5023793;28;20025;-58
2022/05/14 11:47:58;;;;;;;6.82;2.80;;;23.70;61.10;;;;;;5024762;28;20094;-59
2022/05/14 11:50:32;;;;;;;7.55;3.20;;;23.90;61.00;;;;;;5030091;28;20028;-59
2022/05/14 11:53:17;;;;;;;18.42;3.50;;;23.40;61.10;;;;;;5028981;28;20678;-60
2022/05/14 11:56:15;;;;;;;8.23;2.70;;;23.60;61.00;;;;;;5029288;28;20387;-59
2022/05/14 11:58:48;;;;;;;12.68;3.38;;;23.70;61.70;;;;;;5024268;28;20091;-59
2022/05/14 12:01:18;;;;;;;12.35;3.25;;;24.00;59.80;;;;;;5029740;28;20082;-57
2022/05/14 12:03:46;;;;;;;10.98;3.75;;;23.60;59.40;;;;;;5022247;28;20034;-58
2022/05/14 12:06:55;;;;;;;12.13;3.20;;;23.70;59.00;;;;;;5023509;28;20488;-60
2022/05/14 12:09:46;;;;;;;10.30;3.42;;;23.70;58.60;;;;;;5016943;28;20383;-59
2022/05/14 12:12:30;;;;;;;11.82;3.28;;;23.50;59.30;;;;;;5028485;28;20604;-57
2022/05/14 12:14:56;;;;;;;;;;;23.30;59.50;;;;;;4997154;28;20041;-59
2022/05/14 12:17:21;;;;;;;8.10;2.50;;;23.20;59.80;;;;;;5025986;28;19936;-60
2022/05/14 12:19:54;;;;;;;9.75;2.95;;;23.00;60.40;;;;;;5025751;28;20045;-59
2022/05/14 12:22:29;;;;;;;15.52;3.05;;;22.90;61.20;;;;;;5027274;28;20502;-59
2022/05/14 12:25:00;;;;;;;9.35;2.35;;;23.00;59.90;;;;;;5024621;28;20055;-61
2022/05/14 12:27:27;;;;;;;5.80;2.78;;;23.20;60.00;;;;;;5030163;28;20021;-60
2022/05/14 12:33:11;;;;;;;11.85;3.40;;;23.10;60.30;;;;;;5021287;28;20514;-58
2022/05/14 12:33:18;;;;;;;15.10;5.07;;;23.10;61.20;;;;;;5023307;28;20037;-60
2022/05/14 12:35:55;;;;;;;11.88;3.22;;;23.20;60.90;;;;;;5021131;28;20029;-60
2022/05/14 12:38:27;;;;;;;9.00;3.30;;;23.10;60.60;;;;;;5022499;28;20040;-61
2022/05/14 12:40:53;;;;;;;9.93;2.78;;;23.00;59.50;;;;;;5024837;28;20040;-58
2022/05/14 12:43:19;;;;;;;7.53;3.00;;;22.80;61.00;;;;;;5023004;28;20018;-60
2022/05/14 12:46:07;;;;;;;14.55;4.45;;;23.00;60.50;;;;;;5022034;28;20037;-60
2022/05/14 12:48:46;;;;;;;9.27;2.75;;;22.80;58.70;;;;;;5015328;28;20030;-59
2022/05/14 12:51:21;;;;;;;7.93;2.80;;;22.80;61.10;;;;;;5013268;28;20029;-58
2022/05/14 12:53:47;;;;;;;10.23;3.10;;;22.90;60.50;;;;;;5021095;28;20081;-61
2022/05/14 12:56:16;;;;;;;9.93;2.45;;;22.90;60.00;;;;;;5029689;28;20033;-60
2022/05/14 12:58:42;;;;;;;10.60;2.95;;;22.90;60.70;;;;;;5028908;28;20144;-57
2022/05/14 13:01:10;;;;;;;11.18;2.72;;;23.00;60.90;;;;;;5028423;28;20033;-58
2022/05/14 13:03:41;;;;;;;12.35;3.35;;;22.90;58.70;;;;;;5025950;28;20391;-58
2022/05/14 13:06:12;;;;;;;12.93;3.30;;;22.90;60.40;;;;;;5016467;28;20030;-58
2022/05/14 13:08:44;;;;;;;13.70;3.28;;;22.80;60.10;;;;;;5015082;28;20021;-58
2022/05/14 13:11:17;;;;;;;11.68;3.22;;;22.80;59.60;;;;;;5016559;28;20022;-60
2022/05/14 13:13:45;;;;;;;8.38;2.83;;;22.60;60.80;;;;;;5001664;28;20069;-56
2022/05/14 13:16:31;;;;;;;12.23;3.05;;;22.60;59.30;;;;;;5023699;28;20034;-59